Time;durP1;ratioP1;P1;durP2;ratioP2;P2;SDS_P1;SDS_P2;PMS_P1;PMS_P2;Temp;Humidity;BMP_temperature;BMP_pressure;BME280_temperature;BME280_humidity;BME280_pressure;Samples;Min_cycle;Max_cycle;Signal;HPM_P1;HPM_P2
2023/01/18 00:01:53;;;;;;;20.3;14;;;;;;;2.8;86.9;96120;;;;
2023/01/18 00:12:53;;;;;;;14.2;9.5;;;;;;;2.7;86.9;96130;;;;
2023/01/18 00:22:53;;;;;;;14.2;9.5;;;;;;;2.4;87.3;96120;;;;
2023/01/18 00:32:53;;;;;;;14.2;9.5;;;;;;;2.2;87.8;96110;;;;
2023/01/18 00:43:53;;;;;;;12.3;6.7;;;;;;;2.2;87.9;96110;;;;
2023/01/18 00:53:53;;;;;;;12.3;6.7;;;;;;;2.2;88.1;96110;;;;
2023/01/18 01:34:53;;;;;;;7;3.9;;;;;;;1.6;89.8;96040;;;;
2023/01/18 01:45:53;;;;;;;3.9;2.4;;;;;;;1.6;89.8;96060;;;;
2023/01/18 01:55:53;;;;;;;3.9;2.4;;;;;;;1.6;90;96060;;;;
2023/01/18 02:05:53;;;;;;;3.9;2.4;;;;;;;1.6;90.2;96020;;;;
2023/01/18 02:15:53;;;;;;;5;2.5;;;;;;;1.5;90.4;95980;;;;
2023/01/18 02:25:53;;;;;;;5;2.5;;;;;;;1.5;90.5;95990;;;;
2023/01/18 02:35:53;;;;;;;5;2.5;;;;;;;1.6;90.3;95980;;;;
2023/01/18 02:46:57;;;;;;;3;1.6;;;;;;;1.4;90.5;95970;;;;
2023/01/18 02:56:53;;;;;;;3;1.6;;;;;;;1.6;90.5;96000;;;;
2023/01/18 03:07:53;;;;;;;3;1.6;;;;;;;1.7;90.4;96040;;;;
2023/01/18 03:17:53;;;;;;;4.9;2.8;;;;;;;1.9;90.4;96030;;;;
2023/01/18 03:38:53;;;;;;;4.9;2.8;;;;;;;1.9;89.8;95980;;;;
2023/01/18 03:48:53;;;;;;;6.1;3.1;;;;;;;1.9;89.8;96000;;;;
2023/01/18 03:59:53;;;;;;;6.1;3.1;;;;;;;2;89.7;95950;;;;
2023/01/18 04:09:55;;;;;;;6.1;3.1;;;;;;;2.1;89.5;95960;;;;
2023/01/18 04:19:53;;;;;;;6;3.3;;;;;;;2.1;89.4;95940;;;;
2023/01/18 04:29:53;;;;;;;6;3.3;;;;;;;2.1;89.4;95930;;;;
2023/01/18 04:39:54;;;;;;;6;3.3;;;;;;;2;89.4;95930;;;;
2023/01/18 04:50:53;;;;;;;7.8;4.2;;;;;;;2.1;89.4;95940;;;;
2023/01/18 05:00:53;;;;;;;7.8;4.2;;;;;;;2;89.6;95950;;;;
2023/01/18 05:10:53;;;;;;;8.4;5.1;;;;;;;2;90;95960;;;;
2023/01/18 05:21:53;;;;;;;8.4;5.1;;;;;;;2;90;95960;;;;
2023/01/18 05:31:53;;;;;;;8.4;5.1;;;;;;;2.2;89.9;95960;;;;
2023/01/18 05:41:53;;;;;;;9.9;5;;;;;;;2.2;89.7;95970;;;;
2023/01/18 05:52:53;;;;;;;9.9;5;;;;;;;2.3;89.6;95950;;;;
2023/01/18 06:02:53;;;;;;;9.9;5;;;;;;;2.3;89.5;95940;;;;
2023/01/18 06:13:53;;;;;;;8.7;4.9;;;;;;;2.3;89.6;95940;;;;
2023/01/18 06:24:54;;;;;;;8.7;4.9;;;;;;;2.4;89.5;95950;;;;
2023/01/18 06:34:53;;;;;;;8.7;4.9;;;;;;;2.2;89.9;95970;;;;
2023/01/18 06:44:53;;;;;;;11.7;5.7;;;;;;;2.3;90;95970;;;;
2023/01/18 06:55:53;;;;;;;11.7;5.7;;;;;;;2.4;89.8;95970;;;;
2023/01/18 07:05:53;;;;;;;11.7;5.7;;;;;;;2.5;90;96020;;;;
2023/01/18 07:16:53;;;;;;;11.6;6.7;;;;;;;2.6;89.8;96030;;;;
2023/01/18 07:26:53;;;;;;;11.6;6.7;;;;;;;2.7;89.7;96020;;;;
2023/01/18 07:36:53;;;;;;;11.6;6.7;;;;;;;2.7;89.3;96020;;;;
2023/01/18 07:46:53;;;;;;;14.9;6.3;;;;;;;2.8;89.1;96020;;;;
2023/01/18 07:56:53;;;;;;;14.9;6.3;;;;;;;2.9;89;96020;;;;
2023/01/18 08:06:53;;;;;;;14.9;6.3;;;;;;;3;88.4;96010;;;;
2023/01/18 08:17:54;;;;;;;13;6.8;;;;;;;2.9;87.7;95990;;;;
2023/01/18 08:27:53;;;;;;;13;6.8;;;;;;;2.9;87.6;96020;;;;
2023/01/18 08:37:53;;;;;;;13;6.8;;;;;;;3;87.5;96040;;;;
2023/01/18 08:47:53;;;;;;;9.2;6.2;;;;;;;2.9;87.3;96050;;;;
2023/01/18 08:58:53;;;;;;;9.2;6.2;;;;;;;2.9;87;96050;;;;
2023/01/18 09:08:53;;;;;;;9.2;6.2;;;;;;;2.9;86.7;96050;;;;
2023/01/18 09:18:54;;;;;;;12.9;6.9;;;;;;;2.9;86.7;96040;;;;
2023/01/18 09:29:53;;;;;;;12.9;6.9;;;;;;;3;86.9;96070;;;;
2023/01/18 09:40:53;;;;;;;11.8;7.1;;;;;;;3.4;86.7;96080;;;;
2023/01/18 09:50:53;;;;;;;11.8;7.1;;;;;;;3.4;86.2;96110;;;;
2023/01/18 10:01:54;;;;;;;11.8;7.1;;;;;;;3.3;86.3;96130;;;;
2023/01/18 10:11:54;;;;;;;10.5;7.4;;;;;;;3.3;86.1;96130;;;;
2023/01/18 10:22:53;;;;;;;10.5;7.4;;;;;;;3.3;86.4;96140;;;;
2023/01/18 10:33:53;;;;;;;10.5;7.4;;;;;;;3.5;86.6;96150;;;;
2023/01/18 10:44:53;;;;;;;18.5;12;;;;;;;3.6;86.9;96180;;;;
2023/01/18 10:55:53;;;;;;;18.5;12;;;;;;;3.8;86.8;96180;;;;
2023/01/18 11:06:53;;;;;;;18.5;12;;;;;;;3.8;86.6;96200;;;;
2023/01/18 11:17:56;;;;;;;20.5;13.4;;;;;;;3.8;86.7;96220;;;;
2023/01/18 11:27:53;;;;;;;20.5;13.4;;;;;;;4;86.6;96240;;;;
2023/01/18 11:37:53;;;;;;;20.5;13.4;;;;;;;4;86.6;96250;;;;
2023/01/18 11:48:53;;;;;;;22.2;15.1;;;;;;;3.8;86.8;96260;;;;
2023/01/18 11:59:53;;;;;;;22.2;15.1;;;;;;;4.1;87.2;96280;;;;
2023/01/18 12:10:53;;;;;;;19.2;14.3;;;;;;;4.2;86.4;96310;;;;
2023/01/18 12:20:54;;;;;;;19.2;14.3;;;;;;;4.3;86.2;96320;;;;
2023/01/18 12:30:54;;;;;;;19.2;14.3;;;;;;;4.3;85.8;96360;;;;
2023/01/18 12:41:53;;;;;;;16.9;12.2;;;;;;;4.2;86.5;96370;;;;
2023/01/18 12:51:53;;;;;;;16.9;12.2;;;;;;;4.4;86.1;96390;;;;
2023/01/18 13:01:54;;;;;;;16.9;12.2;;;;;;;4.3;85.5;96420;;;;
2023/01/18 13:12:53;;;;;;;17.3;12.2;;;;;;;4.5;85.6;96450;;;;
2023/01/18 13:22:53;;;;;;;17.3;12.2;;;;;;;4.5;85.7;96490;;;;
2023/01/18 13:33:53;;;;;;;17.3;12.2;;;;;;;4.5;85.7;96510;;;;
2023/01/18 13:43:54;;;;;;;16.9;10.8;;;;;;;4.6;85.8;96550;;;;
2023/01/18 13:54:53;;;;;;;16.9;10.8;;;;;;;4.6;85.9;96570;;;;
2023/01/18 14:05:54;;;;;;;16.9;10.8;;;;;;;4.7;86.1;96590;;;;
2023/01/18 14:15:54;;;;;;;17.6;11.8;;;;;;;4.9;85.8;96630;;;;
2023/01/18 14:26:54;;;;;;;17.6;11.8;;;;;;;4.8;85.5;96640;;;;
2023/01/18 14:36:54;;;;;;;17.6;11.8;;;;;;;4.7;85.3;96650;;;;
2023/01/18 14:47:54;;;;;;;14;9.5;;;;;;;4.7;85.5;96670;;;;
2023/01/18 14:58:54;;;;;;;14;9.5;;;;;;;4.6;86.1;96700;;;;
2023/01/18 15:08:53;;;;;;;14;9.5;;;;;;;4.5;86;96720;;;;
2023/01/18 15:18:54;;;;;;;14.8;10.2;;;;;;;4.6;85.7;96740;;;;
2023/01/18 15:28:54;;;;;;;14.8;10.2;;;;;;;4.6;85.1;96760;;;;
2023/01/18 15:38:54;;;;;;;14.8;10.2;;;;;;;4.6;83.2;96780;;;;
2023/01/18 15:49:54;;;;;;;12.9;8.7;;;;;;;4.6;82.6;96790;;;;
2023/01/18 16:00:54;;;;;;;12.9;8.7;;;;;;;4.4;81.8;96800;;;;
2023/01/18 16:11:55;;;;;;;15.9;8.9;;;;;;;4;83.6;96810;;;;
2023/01/18 16:21:54;;;;;;;15.9;8.9;;;;;;;3.8;84.6;96830;;;;
2023/01/18 16:31:54;;;;;;;15.9;8.9;;;;;;;3.6;85;96870;;;;
2023/01/18 16:42:54;;;;;;;16.9;10.9;;;;;;;3.5;85.7;96900;;;;
2023/01/18 16:52:54;;;;;;;16.9;10.9;;;;;;;3.5;85.1;96910;;;;
2023/01/18 17:02:54;;;;;;;16.9;10.9;;;;;;;3.6;84.2;96930;;;;
2023/01/18 17:12:54;;;;;;;18.3;10.7;;;;;;;3.6;83.4;96940;;;;
2023/01/18 17:23:54;;;;;;;18.3;10.7;;;;;;;3.3;83.8;96960;;;;
2023/01/18 17:34:54;;;;;;;18.3;10.7;;;;;;;2.9;83.9;96980;;;;
2023/01/18 17:45:55;;;;;;;22.6;15.7;;;;;;;2.6;83.8;97010;;;;
2023/01/18 17:55:54;;;;;;;22.6;15.7;;;;;;;2.8;82.8;97030;;;;
2023/01/18 18:06:57;;;;;;;22.6;15.7;;;;;;;3.2;81.8;97030;;;;
2023/01/18 18:16:54;;;;;;;7;3.5;;;;;;;3.2;81.2;97030;;;;
2023/01/18 18:26:54;;;;;;;7;3.5;;;;;;;3.2;80.9;97070;;;;
2023/01/18 18:37:55;;;;;;;7;3.5;;;;;;;3.2;80.3;97080;;;;
2023/01/18 18:48:55;;;;;;;7.1;3.8;;;;;;;3.2;79.9;97110;;;;
2023/01/18 18:58:54;;;;;;;7.1;3.8;;;;;;;3.1;79.5;97100;;;;
2023/01/18 19:09:54;;;;;;;16.2;7.1;;;;;;;3;79.2;97100;;;;
2023/01/18 19:19:54;;;;;;;16.2;7.1;;;;;;;3;78.8;97130;;;;
2023/01/18 19:29:55;;;;;;;16.2;7.1;;;;;;;2.9;78.9;97150;;;;
2023/01/18 19:39:54;;;;;;;7.2;4.2;;;;;;;2.9;79;97160;;;;
2023/01/18 19:49:56;;;;;;;7.2;4.2;;;;;;;2.7;79.2;97180;;;;
2023/01/18 20:00:54;;;;;;;7.2;4.2;;;;;;;2.6;79.1;97200;;;;
2023/01/18 20:10:54;;;;;;;9.6;4.6;;;;;;;2.7;78.8;97220;;;;
2023/01/18 20:20:54;;;;;;;9.6;4.6;;;;;;;2.5;79.4;97240;;;;
2023/01/18 20:31:55;;;;;;;9.6;4.6;;;;;;;2.4;79.5;97230;;;;
2023/01/18 20:41:54;;;;;;;9.5;4.7;;;;;;;2.3;79.5;97230;;;;
2023/01/18 20:51:54;;;;;;;9.5;4.7;;;;;;;2.2;80.2;97240;;;;
2023/01/18 21:01:54;;;;;;;9.5;4.7;;;;;;;2;81.3;97250;;;;
2023/01/18 21:11:54;;;;;;;11.8;6.5;;;;;;;1.9;82;97260;;;;
2023/01/18 21:22:54;;;;;;;11.8;6.5;;;;;;;2.2;81.2;97270;;;;
2023/01/18 21:32:54;;;;;;;11.8;6.5;;;;;;;2.2;81.1;97280;;;;
2023/01/18 21:54:54;;;;;;;11.3;5.1;;;;;;;2.2;81.6;97300;;;;
2023/01/18 22:05:54;;;;;;;11.3;5.1;;;;;;;2;82.1;97360;;;;
2023/01/18 22:15:54;;;;;;;14.1;5.8;;;;;;;2;82.5;97370;;;;
2023/01/18 22:26:54;;;;;;;14.1;5.8;;;;;;;2;82.5;97360;;;;
2023/01/18 22:37:54;;;;;;;14.1;5.8;;;;;;;1.9;82.5;97380;;;;
2023/01/18 22:47:54;;;;;;;15.8;8.2;;;;;;;1.7;82.7;97400;;;;
2023/01/18 22:58:54;;;;;;;15.8;8.2;;;;;;;1.7;82.9;97410;;;;
2023/01/18 23:08:54;;;;;;;13;7;;;;;;;1.8;83.4;97420;;;;
2023/01/18 23:18:54;;;;;;;13;7;;;;;;;2;83.6;97410;;;;
2023/01/18 23:28:54;;;;;;;13;7;;;;;;;2.1;83.5;97430;;;;
